Time;durP1;ratioP1;P1;durP2;ratioP2;P2;SDS_P1;SDS_P2;PMS_P1;PMS_P2;Temp;Humidity;BMP_temperature;BMP_pressure;BME280_temperature;BME280_humidity;BME280_pressure;Samples;Min_cycle;Max_cycle;Signal;HPM_P1;HPM_P2
2022/04/01 00:00:06;;;;;;;1.25;0.95;;;;;;;21.85;35.54;97269.97;5133554;28;20514;-63
2022/04/01 00:02:32;;;;;;;1.50;0.90;;;;;;;21.85;35.56;97269.97;5133522;28;20046;-63
2022/04/01 00:04:57;;;;;;;2.00;0.98;;;;;;;21.86;35.42;97266.00;5132885;28;20031;-63
2022/04/01 00:07:23;;;;;;;1.73;1.02;;;;;;;21.81;35.78;97258.16;5133748;28;20111;-63
2022/04/01 00:09:48;;;;;;;1.63;1.00;;;;;;;21.84;35.60;97265.63;5133669;28;20398;-63
2022/04/01 00:12:14;;;;;;;1.30;0.90;;;;;;;21.85;35.60;97271.97;5133489;28;20043;-63
2022/04/01 00:14:39;;;;;;;1.25;0.88;;;;;;;21.84;35.66;97262.84;5133837;28;20050;-63
2022/04/01 00:17:05;;;;;;;1.77;1.10;;;;;;;21.84;35.76;97262.84;5133428;28;20043;-63
2022/04/01 00:19:30;;;;;;;1.10;0.80;;;;;;;21.84;35.74;97264.84;5133448;28;20050;-63
2022/04/01 00:21:56;;;;;;;1.25;0.90;;;;;;;21.84;35.54;97259.28;5133499;28;20043;-63
2022/04/01 00:24:22;;;;;;;1.42;0.93;;;;;;;21.83;35.70;97258.50;5133320;28;20050;-64
2022/04/01 00:26:48;;;;;;;1.50;0.98;;;;;;;21.82;35.64;97256.94;5133590;28;20507;-63
2022/04/01 00:29:16;;;;;;;1.70;1.00;;;;;;;21.83;35.60;97266.84;5133154;28;20142;-61
2022/04/01 00:31:46;;;;;;;1.00;0.75;;;;;;;21.80;35.65;97253.81;5132911;28;20043;-60
2022/04/01 00:34:18;;;;;;;1.50;0.98;;;;;;;21.83;35.44;97255.72;5133336;28;20083;-60
2022/04/01 00:36:49;;;;;;;1.58;1.00;;;;;;;21.82;35.41;97248.59;5133234;28;20054;-60
2022/04/01 00:39:17;;;;;;;1.73;1.10;;;;;;;21.82;35.58;97250.59;5133393;28;20039;-60
2022/04/01 00:41:47;;;;;;;1.67;1.10;;;;;;;21.80;35.36;97251.03;5133032;28;20507;-60
2022/04/01 00:44:13;;;;;;;1.80;1.20;;;;;;;21.81;35.52;97249.81;5133316;28;20047;-60
2022/04/01 00:46:40;;;;;;;1.67;1.10;;;;;;;21.79;35.43;97243.91;5133306;28;20091;-60
2022/04/01 00:49:06;;;;;;;1.85;1.20;;;;;;;21.80;35.35;97247.47;5132886;28;20051;-60
2022/04/01 00:51:31;;;;;;;2.20;1.40;;;;;;;21.77;35.52;97249.09;5132863;28;20452;-61
2022/04/01 00:53:58;;;;;;;1.92;1.20;;;;;;;21.77;35.27;97239.97;5133162;28;20035;-60
2022/04/01 00:56:30;;;;;;;2.00;1.27;;;;;;;21.79;35.60;97241.13;5132976;28;20047;-61
2022/04/01 00:58:56;;;;;;;1.30;0.93;;;;;;;21.78;35.59;97239.53;5132958;28;20108;-61
2022/04/01 01:01:22;;;;;;;1.67;1.05;;;;;;;21.77;35.32;97232.41;5132425;28;20035;-61
2022/04/01 01:03:47;;;;;;;1.45;1.00;;;;;;;21.77;35.55;97240.75;5111669;28;20070;-61
2022/04/01 01:06:14;;;;;;;1.73;1.10;;;;;;;21.79;35.46;97241.13;5112405;28;20130;-60
2022/04/01 01:08:40;;;;;;;1.40;1.00;;;;;;;21.78;35.15;97241.53;5111888;28;20065;-60
2022/04/01 01:11:06;;;;;;;1.95;1.20;;;;;;;21.78;35.42;97236.75;5111729;28;20044;-61
2022/04/01 01:13:32;;;;;;;1.63;1.13;;;;;;;21.81;35.16;97235.91;5112283;28;20044;-60
2022/04/01 01:15:57;;;;;;;1.80;1.27;;;;;;;21.80;35.34;97236.34;5112158;28;20079;-60
2022/04/01 01:18:23;;;;;;;1.70;1.20;;;;;;;21.80;35.26;97234.34;5112089;28;20075;-60
2022/04/01 01:20:48;;;;;;;1.20;0.90;;;;;;;21.77;35.07;97229.63;5111892;28;20373;-60
2022/04/01 01:23:13;;;;;;;1.65;1.00;;;;;;;21.78;35.32;97233.97;5111471;28;20055;-63
2022/04/01 01:25:39;;;;;;;1.52;1.00;;;;;;;21.78;35.16;97225.63;5112216;28;20429;-63
2022/04/01 01:28:06;;;;;;;1.23;0.90;;;;;;;22.03;34.80;97227.03;5112138;28;20071;-63
2022/04/01 01:30:32;;;;;;;1.27;0.90;;;;;;;22.91;33.70;97223.91;5111698;28;20538;-63
2022/04/01 01:32:58;;;;;;;2.22;1.10;;;;;;;23.49;32.40;97218.19;5097107;28;20089;-63
2022/04/01 01:35:23;;;;;;;1.45;1.00;;;;;;;23.19;32.75;97218.72;5112009;28;20040;-63
2022/04/01 01:37:49;;;;;;;1.35;1.00;;;;;;;22.92;33.16;97221.91;5112012;28;20039;-63
2022/04/01 01:40:15;;;;;;;1.25;0.82;;;;;;;22.70;33.62;97216.13;5129163;27;20621;-60
2022/04/01 01:42:40;;;;;;;1.73;1.10;;;;;;;22.52;33.97;97217.41;5132143;28;20529;-60
2022/04/01 01:45:06;;;;;;;1.50;1.05;;;;;;;22.39;34.05;97213.00;5132082;28;20637;-60
2022/04/01 01:47:32;;;;;;;1.38;1.00;;;;;;;22.30;34.19;97205.28;5132376;28;20130;-60
2022/04/01 01:55:27;;;;;;;1.63;1.02;;;;;;;22.08;34.77;97204.22;5108166;28;20092;-60
2022/04/01 01:57:53;;;;;;;1.50;0.90;;;;;;;22.04;34.69;97206.31;5111570;28;20488;-61
2022/04/01 02:00:22;;;;;;;1.60;0.90;;;;;;;22.02;34.97;97205.97;5111318;28;20075;-60
2022/04/01 02:02:49;;;;;;;1.70;1.13;;;;;;;21.99;34.82;97202.81;5111324;28;20047;-60
2022/04/01 02:05:16;;;;;;;1.40;1.00;;;;;;;21.97;35.09;97198.91;5111053;28;20420;-60
2022/04/01 02:07:47;;;;;;;1.58;1.10;;;;;;;21.94;34.94;97200.59;5111387;28;20066;-60
2022/04/01 02:10:13;;;;;;;1.42;1.00;;;;;;;21.94;34.79;97199.81;5111220;28;20168;-60
2022/04/01 02:12:39;;;;;;;1.77;1.27;;;;;;;21.92;34.93;97191.88;5110818;28;20491;-60
2022/04/01 02:15:05;;;;;;;1.77;1.20;;;;;;;21.93;34.81;97192.66;5111190;28;20046;-61
2022/04/01 02:17:31;;;;;;;1.77;1.25;;;;;;;21.93;35.08;97187.91;5110678;28;20130;-60
2022/04/01 02:19:57;;;;;;;1.80;1.20;;;;;;;21.89;35.09;97169.72;5111189;28;20138;-60
2022/04/01 02:22:22;;;;;;;1.92;1.20;;;;;;;21.89;34.96;97180.84;5110719;28;20052;-60
2022/04/01 02:24:50;;;;;;;1.90;1.17;;;;;;;21.90;34.70;97177.63;5110714;28;20058;-60
2022/04/01 02:27:17;;;;;;;1.75;1.17;;;;;;;21.89;34.86;97178.84;5111206;28;20049;-60
2022/04/01 02:29:43;;;;;;;2.00;1.30;;;;;;;21.89;34.80;97178.84;5110816;28;20058;-61
2022/04/01 02:32:08;;;;;;;1.48;1.05;;;;;;;21.87;35.08;97172.94;5110548;28;20043;-60
2022/04/01 02:34:34;;;;;;;1.83;1.20;;;;;;;21.84;34.77;97176.56;5110925;28;20042;-60
2022/04/01 02:37:04;;;;;;;2.20;1.33;;;;;;;21.83;34.71;97166.66;5110972;28;20088;-60
2022/04/01 02:39:30;;;;;;;1.90;1.30;;;;;;;21.84;34.87;97171.00;5110990;28;20530;-60
2022/04/01 02:41:56;;;;;;;1.63;1.10;;;;;;;21.84;34.99;97167.44;5110535;28;20047;-60
2022/04/01 02:44:21;;;;;;;1.90;1.27;;;;;;;21.84;35.04;97173.78;5110580;28;20040;-61
2022/04/01 02:46:47;;;;;;;1.80;1.20;;;;;;;21.84;34.79;97179.34;5110728;28;20079;-61
2022/04/01 02:49:17;;;;;;;1.65;1.15;;;;;;;21.83;34.92;97177.78;5110522;28;20051;-61
2022/04/01 02:51:44;;;;;;;1.65;1.10;;;;;;;21.84;34.87;97179.34;5110432;28;20104;-61
2022/04/01 02:54:11;;;;;;;1.92;1.10;;;;;;;21.84;35.04;97178.56;5110613;28;20101;-61
2022/04/01 02:56:37;;;;;;;1.67;1.08;;;;;;;21.83;34.99;97169.44;5110713;28;20097;-60
2022/04/01 02:59:08;;;;;;;1.98;1.13;;;;;;;21.83;34.79;97171.44;5110632;28;20050;-60
2022/04/01 03:01:38;;;;;;;1.80;1.20;;;;;;;21.82;34.83;97178.22;5110095;28;20539;-61
2022/04/01 03:04:09;;;;;;;2.28;1.38;;;;;;;21.82;34.87;97173.44;5110295;28;20551;-61
2022/04/01 03:06:38;;;;;;;1.80;1.13;;;;;;;21.84;34.78;97178.56;5110605;28;20046;-60
2022/04/01 03:09:07;;;;;;;1.50;1.00;;;;;;;21.83;34.91;97183.34;5110475;28;20047;-63
2022/04/01 03:11:33;;;;;;;1.77;1.10;;;;;;;21.84;34.74;97184.91;5110201;28;20050;-63
2022/04/01 03:13:58;;;;;;;1.60;0.98;;;;;;;21.82;34.96;97181.03;5110119;28;20043;-63
2022/04/01 03:16:24;;;;;;;1.75;1.08;;;;;;;21.83;34.86;97188.16;5110098;28;20415;-63
2022/04/01 03:18:50;;;;;;;1.85;1.10;;;;;;;21.82;34.70;97189.38;5110249;28;20069;-63
2022/04/01 03:21:16;;;;;;;1.70;1.27;;;;;;;21.83;34.75;97186.13;5110073;28;20040;-63
2022/04/01 03:23:43;;;;;;;2.00;1.27;;;;;;;21.82;34.89;97184.59;5109905;28;20046;-63
2022/04/01 03:26:09;;;;;;;1.70;1.10;;;;;;;21.79;34.88;97179.91;5110112;28;20047;-63
2022/04/01 03:28:35;;;;;;;1.90;1.15;;;;;;;21.81;34.65;97183.03;5109333;28;20054;-63
2022/04/01 03:31:03;;;;;;;1.73;1.10;;;;;;;21.82;35.07;97183.81;5109450;28;20047;-63
2022/04/01 03:33:30;;;;;;;2.22;1.45;;;;;;;21.81;34.93;97180.25;5109676;28;20691;-63
2022/04/01 03:35:56;;;;;;;1.90;1.20;;;;;;;21.81;34.80;97177.47;5109959;28;20039;-63
2022/04/01 03:38:22;;;;;;;1.75;1.20;;;;;;;21.80;34.86;97175.91;5110129;28;20040;-63
2022/04/01 03:40:48;;;;;;;1.60;1.10;;;;;;;21.82;34.73;97176.22;5110085;28;20515;-63
2022/04/01 03:43:14;;;;;;;2.00;1.38;;;;;;;21.80;34.98;97172.34;5109699;28;20040;-63
2022/04/01 03:45:46;;;;;;;1.88;1.10;;;;;;;21.80;34.80;97175.13;5109498;28;20047;-63
2022/04/01 03:48:45;;;;;;;1.80;1.20;;;;;;;21.78;34.99;97169.97;5110065;28;20050;-63
2022/04/01 03:51:25;;;;;;;1.70;1.10;;;;;;;21.78;34.95;97161.63;5010275;28;20041;-63
2022/04/01 03:54:00;;;;;;;2.47;1.50;;;;;;;21.76;35.09;97155.72;5026898;28;20080;-63
2022/04/01 03:56:32;;;;;;;1.65;1.10;;;;;;;21.79;35.02;97160.41;5043533;28;20434;-63
2022/04/01 03:59:06;;;;;;;2.10;1.30;;;;;;;21.79;35.10;97160.41;5046671;28;20037;-63
2022/04/01 04:01:34;;;;;;;1.80;1.17;;;;;;;21.78;35.21;97153.28;5046634;28;20040;-63
2022/04/01 04:04:01;;;;;;;2.17;1.50;;;;;;;21.77;34.99;97168.41;5046267;28;20049;-63
2022/04/01 04:06:27;;;;;;;2.90;1.45;;;;;;;21.78;34.89;97164.41;5046708;28;20315;-63
2022/04/01 04:08:57;;;;;;;2.30;1.40;;;;;;;21.76;34.99;97166.84;5046406;28;20243;-63
2022/04/01 04:11:24;;;;;;;4.40;1.52;;;;;;;21.77;35.08;97157.28;5045370;28;20052;-63
2022/04/01 04:13:52;;;;;;;2.17;1.50;;;;;;;21.78;35.20;97169.97;5046438;28;20106;-63
2022/04/01 04:16:24;;;;;;;1.58;1.20;;;;;;;21.77;34.93;97170.41;5046420;28;20144;-63
2022/04/01 04:19:07;;;;;;;1.90;1.50;;;;;;;21.78;35.13;97181.09;5046522;28;20053;-63
2022/04/01 04:21:47;;;;;;;2.03;1.42;;;;;;;21.77;34.73;97184.31;5046344;28;20594;-63
2022/04/01 04:24:25;;;;;;;2.08;1.30;;;;;;;21.77;34.82;97223.28;5046293;28;20147;-63
2022/04/01 04:26:53;;;;;;;1.50;1.05;;;;;;;21.75;34.66;97203.44;5046846;28;20063;-63
2022/04/01 04:29:19;;;;;;;1.70;1.08;;;;;;;21.75;34.51;97220.94;5127396;28;20105;-63
2022/04/01 04:32:02;;;;;;;1.63;1.00;;;;;;;21.71;34.31;97234.91;5129743;28;20477;-64
2022/04/01 04:34:38;;;;;;;1.42;0.95;;;;;;;21.71;34.21;97226.56;5129722;28;20035;-63
2022/04/01 04:37:11;;;;;;;1.75;0.93;;;;;;;21.73;34.17;97228.16;5129887;28;20104;-63
2022/04/01 04:39:38;;;;;;;;;;;;;;;21.77;34.06;97245.53;5111849;28;20047;-63
2022/04/01 04:42:04;;;;;;;1.08;0.80;;;;;;;21.75;34.00;97247.97;5132562;27;19915;-63
2022/04/01 04:44:31;;;;;;;0.98;0.70;;;;;;;21.73;34.13;97264.31;5133049;28;20031;-63
2022/04/01 04:46:58;;;;;;;0.90;0.70;;;;;;;21.72;33.87;97277.47;5133011;28;20040;-63
2022/04/01 04:49:27;;;;;;;0.75;0.68;;;;;;;21.71;33.48;97264.75;5133063;28;20104;-63
2022/04/01 04:51:53;;;;;;;0.82;0.57;;;;;;;21.72;33.84;97274.69;5133008;28;20039;-63
2022/04/01 04:54:20;;;;;;;0.80;0.60;;;;;;;21.71;33.39;97270.31;5132975;28;20054;-63
2022/04/01 04:56:48;;;;;;;0.88;0.68;;;;;;;21.71;33.48;97298.13;5132957;28;20039;-63
2022/04/01 04:59:17;;;;;;;0.68;0.40;;;;;;;21.69;33.23;97267.97;5133054;28;20074;-63
2022/04/01 05:01:59;;;;;;;0.45;0.38;;;;;;;21.70;33.53;97296.56;5132877;28;20134;-63
2022/04/01 05:04:55;;;;;;;0.60;0.40;;;;;;;21.68;33.19;97297.00;5132628;28;20043;-63
2022/04/01 05:07:33;;;;;;;0.65;0.30;;;;;;;21.69;32.96;97311.69;5132892;28;20043;-63
2022/04/01 05:10:08;;;;;;;0.50;0.40;;;;;;;21.67;33.03;97300.22;5132681;28;20073;-63
2022/04/01 05:12:44;;;;;;;1.00;0.50;;;;;;;21.67;32.77;97322.47;5132471;28;20039;-63
2022/04/01 05:15:11;;;;;;;0.82;0.40;;;;;;;21.72;32.90;97321.97;5132716;28;20051;-60
2022/04/01 05:17:51;;;;;;;0.30;0.30;;;;;;;22.50;31.53;97322.94;5132788;28;20043;-60
2022/04/01 05:20:23;;;;;;;0.65;0.40;;;;;;;23.60;29.75;97324.72;5132612;28;20047;-63
2022/04/01 05:23:09;;;;;;;0.25;0.20;;;;;;;23.50;29.65;97328.56;5132305;28;20072;-63
2022/04/01 05:25:44;;;;;;;0.30;0.30;;;;;;;23.09;30.08;97306.28;5132061;28;20051;-63
2022/04/01 05:28:25;;;;;;;0.30;0.30;;;;;;;22.76;30.41;97320.25;5132714;28;20043;-63
2022/04/01 05:31:20;;;;;;;0.28;0.22;;;;;;;22.52;30.87;97342.78;5132480;28;20484;-63
2022/04/01 05:34:04;;;;;;;0.25;0.25;;;;;;;22.36;31.32;97350.34;5132211;28;20035;-63
2022/04/01 05:36:31;;;;;;;0.73;0.20;;;;;;;22.21;31.08;97342.31;5132537;28;20058;-62
2022/04/01 05:38:57;;;;;;;0.20;0.20;;;;;;;22.11;31.33;97350.94;5132408;28;20118;-63
2022/04/01 05:41:25;;;;;;;0.20;0.20;;;;;;;22.04;31.55;97348.28;5132154;28;20495;-63
2022/04/01 05:43:50;;;;;;;0.35;0.20;;;;;;;21.98;31.63;97371.06;5132148;28;20081;-62
2022/04/01 05:46:19;;;;;;;0.30;0.30;;;;;;;21.95;31.43;97368.38;5132164;28;20414;-62
2022/04/01 05:48:46;;;;;;;0.20;0.20;;;;;;;21.90;31.50;97380.78;5132257;28;20054;-62
2022/04/01 05:51:15;;;;;;;0.30;0.22;;;;;;;21.89;31.69;97359.75;5132264;28;20066;-62
2022/04/01 05:53:46;;;;;;;0.10;0.10;;;;;;;21.85;31.40;97403.56;5130808;27;20403;-62
2022/04/01 05:56:12;;;;;;;0.28;0.20;;;;;;;21.82;31.47;97414.78;5132221;28;20107;-62
2022/04/01 05:58:39;;;;;;;0.10;0.10;;;;;;;21.80;31.30;97414.44;5132078;28;20032;-62
2022/04/01 06:01:10;;;;;;;0.10;0.10;;;;;;;21.77;31.32;97402.16;5132104;28;20058;-62
2022/04/01 06:04:12;;;;;;;0.20;0.20;;;;;;;21.76;31.27;97433.19;5131631;28;20434;-62
2022/04/01 06:06:41;;;;;;;0.20;0.17;;;;;;;21.74;31.22;97436.41;5131738;28;20069;-62
2022/04/01 06:09:06;;;;;;;0.13;0.13;;;;;;;21.74;31.54;97446.75;5131943;28;20043;-62
2022/04/01 06:11:47;;;;;;;0.10;0.10;;;;;;;21.72;31.15;97455.53;5131892;28;20039;-62
2022/04/01 06:14:33;;;;;;;0.10;0.10;;;;;;;21.69;30.97;97454.38;5131424;28;20043;-63
2022/04/01 06:17:17;;;;;;;0.10;0.10;;;;;;;21.67;31.17;97419.84;5130457;28;20035;-62
2022/04/01 06:19:47;;;;;;;0.10;0.10;;;;;;;21.68;30.98;97461.16;5130992;28;20039;-63
2022/04/01 06:22:20;;;;;;;0.08;0.03;;;;;;;21.69;31.03;97512.03;5126215;28;20476;-63
2022/04/01 06:25:10;;;;;;;0.10;0.10;;;;;;;21.68;31.07;97497.34;5127908;28;20039;-62
2022/04/01 06:27:46;;;;;;;0.10;0.10;;;;;;;21.68;31.05;97502.91;5129301;28;20521;-63
2022/04/01 06:30:17;;;;;;;0.10;0.10;;;;;;;21.66;31.15;97496.19;5124725;28;20046;-62
2022/04/01 06:32:55;;;;;;;0.10;0.10;;;;;;;21.66;30.84;97524.81;5125017;28;20579;-63
2022/04/01 06:35:47;;;;;;;0.20;0.10;;;;;;;21.66;30.89;97498.97;5114769;28;20053;-60
2022/04/01 06:39:01;;;;;;;0.10;0.10;;;;;;;21.90;30.41;97533.09;5128972;28;20069;-61
2022/04/01 06:41:42;;;;;;;0.10;0.10;;;;;;;22.75;29.15;97544.47;5113266;28;20055;-61
2022/04/01 06:44:08;;;;;;;0.20;0.20;;;;;;;23.48;28.35;97531.16;5117992;27;20071;-60
2022/04/01 06:46:34;;;;;;;1.17;0.10;;;;;;;23.54;28.16;97546.16;5120533;28;20058;-60
2022/04/01 06:48:59;;;;;;;0.00;0.00;;;;;;;23.17;28.49;97544.69;5114071;28;20047;-61
2022/04/01 06:51:25;;;;;;;0.35;0.10;;;;;;;22.87;29.28;97568.13;5116509;27;20706;-61
2022/04/01 06:53:50;;;;;;;0.05;0.05;;;;;;;22.66;29.65;97552.63;5099252;28;20114;-60
2022/04/01 06:56:16;;;;;;;0.85;0.20;;;;;;;22.47;30.55;97568.16;5109806;27;20058;-60
2022/04/01 06:58:41;;;;;;;0.20;0.10;;;;;;;22.32;30.55;97566.91;5117653;28;20407;-61
2022/04/01 07:01:07;;;;;;;0.57;0.10;;;;;;;22.20;30.88;97571.88;5111717;28;20043;-61
2022/04/01 07:03:35;;;;;;;0.10;0.10;;;;;;;22.10;31.25;97580.47;5115382;27;20043;-60
2022/04/01 07:06:02;;;;;;;0.20;0.03;;;;;;;22.05;31.40;97601.19;5112095;28;20522;-63
2022/04/01 07:08:28;;;;;;;12.82;6.90;;;;;;;22.05;31.67;97606.75;5107345;27;20051;-65
2022/04/01 07:10:53;;;;;;;20.05;11.30;;;;;;;21.86;29.93;97605.53;5113544;27;20051;-62
2022/04/01 07:13:19;;;;;;;9.05;6.63;;;;;;;21.74;30.84;97631.19;5117544;28;20051;-61
2022/04/01 07:15:45;;;;;;;11.23;5.10;;;;;;;21.72;31.78;97636.41;5121533;28;20142;-61
2022/04/01 07:18:11;;;;;;;6.88;4.72;;;;;;;21.73;31.63;97623.28;5120990;28;20408;-61
2022/04/01 07:20:36;;;;;;;6.65;4.10;;;;;;;21.75;32.07;97624.41;5116250;27;20810;-62
2022/04/01 07:23:03;;;;;;;5.95;3.63;;;;;;;21.77;32.21;97637.91;5117466;27;20039;-61
2022/04/01 07:25:29;;;;;;;6.88;3.20;;;;;;;21.78;32.11;97645.81;5089163;27;20150;-62
2022/04/01 07:27:57;;;;;;;6.00;2.90;;;;;;;21.80;32.13;97646.19;5122608;27;20702;-59
2022/04/01 07:30:22;;;;;;;14.15;2.92;;;;;;;21.78;30.30;97645.03;5120853;27;20058;-61
2022/04/01 07:32:54;;;;;;;9.18;5.93;;;;;;;21.47;30.49;97655.50;5097532;27;20027;-60
2022/04/01 07:35:20;;;;;;;8.35;4.40;;;;;;;21.46;31.76;97670.63;5105694;27;20058;-62
2022/04/01 07:37:46;;;;;;;7.03;3.47;;;;;;;21.46;32.40;97663.06;5114625;28;20044;-59
2022/04/01 07:40:13;;;;;;;6.22;3.40;;;;;;;21.54;32.57;97677.63;5107027;28;20122;-60
2022/04/01 07:42:39;;;;;;;7.28;2.58;;;;;;;21.58;32.91;97686.72;5117230;28;20077;-59
2022/04/01 07:45:06;;;;;;;3.63;2.25;;;;;;;21.65;33.20;97690.19;5105088;28;20473;-59
2022/04/01 07:47:32;;;;;;;4.60;2.03;;;;;;;21.70;33.28;97680.56;5107444;28;20871;-58
2022/04/01 07:49:59;;;;;;;9.13;2.00;;;;;;;21.75;33.95;97705.13;5104054;28;20039;-59
2022/04/01 07:52:24;;;;;;;5.47;2.20;;;;;;;21.79;33.71;97705.88;5102498;28;20089;-61
2022/04/01 07:54:50;;;;;;;3.65;1.70;;;;;;;21.85;33.77;97715.28;5098923;27;20470;-61
2022/04/01 07:57:17;;;;;;;5.75;1.80;;;;;;;21.84;33.84;97710.94;5111552;27;20562;-61
2022/04/01 07:59:44;;;;;;;3.92;1.75;;;;;;;21.87;34.05;97712.88;5106773;28;20062;-61
2022/04/01 08:02:09;;;;;;;2.83;1.40;;;;;;;21.91;33.83;97730.28;5107085;28;20071;-60
2022/04/01 08:04:35;;;;;;;2.38;1.20;;;;;;;21.95;33.82;97719.13;5119320;28;20078;-60
2022/04/01 08:07:01;;;;;;;3.55;1.20;;;;;;;21.95;33.60;97736.59;5117006;28;20074;-60
2022/04/01 08:09:26;;;;;;;3.03;1.20;;;;;;;21.98;33.69;97734.97;5120243;28;20051;-60
2022/04/01 08:11:53;;;;;;;6.03;1.30;;;;;;;21.99;33.46;97751.22;5115005;27;20071;-59
2022/04/01 08:14:20;;;;;;;1.40;0.80;;;;;;;22.01;33.83;97758.41;5116924;27;20061;-60
2022/04/01 08:16:46;;;;;;;1.77;0.90;;;;;;;22.07;33.59;97749.13;5109753;27;20046;-59
2022/04/01 08:19:12;;;;;;;2.58;0.90;;;;;;;22.03;33.67;97756.75;5119590;27;20041;-59
2022/04/01 08:21:38;;;;;;;1.30;0.57;;;;;;;22.05;33.54;97747.97;5115000;27;20047;-59
2022/04/01 08:24:04;;;;;;;1.30;0.73;;;;;;;22.04;33.23;97747.19;5114031;27;20412;-61
2022/04/01 08:26:30;;;;;;;2.05;0.80;;;;;;;22.06;33.31;97763.47;5097830;27;20883;-59
2022/04/01 08:28:55;;;;;;;4.50;1.30;;;;;;;22.04;33.24;97758.31;5102449;27;20047;-59
2022/04/01 08:31:22;;;;;;;1.13;0.70;;;;;;;22.07;32.95;97765.03;5111247;27;20066;-60
2022/04/01 08:33:48;;;;;;;1.08;0.70;;;;;;;22.05;33.18;97771.03;5110084;28;20114;-60
2022/04/01 08:36:14;;;;;;;1.58;0.75;;;;;;;22.04;33.08;97777.03;5112364;28;20050;-60
2022/04/01 08:38:40;;;;;;;0.80;0.40;;;;;;;22.04;33.18;97780.59;5110305;28;20083;-59
2022/04/01 08:41:07;;;;;;;1.15;0.60;;;;;;;22.05;33.12;97784.16;5109212;27;20047;-59
2022/04/01 08:43:39;;;;;;;1.42;0.45;;;;;;;22.04;33.26;97793.72;5101927;27;20044;-61
2022/04/01 08:46:08;;;;;;;2.67;0.50;;;;;;;22.06;33.26;97796.88;5106589;27;20915;-61
2022/04/01 08:48:36;;;;;;;2.28;0.60;;;;;;;22.06;33.39;97797.66;5104832;28;20059;-61
2022/04/01 08:51:01;;;;;;;6.07;1.13;;;;;;;22.05;33.31;97809.22;5110497;28;20065;-61
2022/04/01 08:53:27;;;;;;;2.60;1.05;;;;;;;22.07;33.26;97798.44;5113200;28;20043;-61
2022/04/01 08:55:55;;;;;;;3.28;0.90;;;;;;;22.08;33.34;97798.06;5108853;28;20072;-60
2022/04/01 08:58:23;;;;;;;1.58;0.80;;;;;;;22.10;33.23;97801.22;5107351;28;20129;-60
2022/04/01 09:00:52;;;;;;;1.63;0.70;;;;;;;22.09;32.86;97818.34;5110255;28;20044;-60
2022/04/01 09:03:21;;;;;;;1.10;0.60;;;;;;;22.14;32.86;97810.28;5117606;28;20070;-59
2022/04/01 09:05:58;;;;;;;1.10;0.63;;;;;;;22.18;32.91;97815.81;5103342;28;20070;-59
2022/04/01 09:08:26;;;;;;;1.23;0.60;;;;;;;22.22;32.96;97834.06;5083554;28;20055;-61
2022/04/01 09:10:58;;;;;;;1.35;0.50;;;;;;;22.22;33.05;97831.25;5112027;28;20146;-60
2022/04/01 09:13:45;;;;;;;2.65;0.57;;;;;;;22.24;33.02;97837.19;5112520;28;20043;-61
2022/04/01 09:16:31;;;;;;;0.52;0.35;;;;;;;22.29;33.38;97835.94;5111448;28;20040;-66
2022/04/01 09:18:59;;;;;;;2.42;0.57;;;;;;;22.31;33.60;97835.50;5114170;27;20050;-60
2022/04/01 09:21:27;;;;;;;2.22;0.55;;;;;;;22.22;33.64;97822.91;5112781;27;20043;-60
2022/04/01 09:23:53;;;;;;;1.10;0.38;;;;;;;22.24;33.90;97828.06;5116226;28;20075;-58
2022/04/01 09:26:21;;;;;;;2.97;0.47;;;;;;;22.23;34.33;97827.25;5115284;27;20047;-61
2022/04/01 09:28:49;;;;;;;1.70;0.43;;;;;;;22.25;33.97;97841.53;5114987;27;20823;-63
2022/04/01 09:31:15;;;;;;;3.08;0.50;;;;;;;22.29;33.86;97835.13;5115957;27;20135;-61
2022/04/01 09:33:45;;;;;;;1.90;0.50;;;;;;;22.31;33.51;97850.22;5115100;28;20081;-61
2022/04/01 09:36:26;;;;;;;1.30;0.50;;;;;;;22.31;33.46;97846.66;5105906;28;20047;-58
2022/04/01 09:38:55;;;;;;;4.28;0.40;;;;;;;22.33;33.72;97864.50;5110722;27;20054;-60
2022/04/01 09:41:20;;;;;;;1.65;0.30;;;;;;;22.35;33.71;97862.06;5098589;28;20046;-59
2022/04/01 09:43:46;;;;;;;4.18;0.50;;;;;;;22.37;33.70;97842.97;5109172;28;20051;-59
2022/04/01 09:46:26;;;;;;;0.82;0.32;;;;;;;22.36;33.63;97858.09;5113989;28;20039;-59
2022/04/01 09:48:58;;;;;;;2.92;0.40;;;;;;;22.39;33.50;97853.66;5103963;28;20470;-60
2022/04/01 09:51:28;;;;;;;;;;;;;;;22.42;33.53;97861.97;5100257;28;20083;-60
2022/04/01 09:53:54;;;;;;;4.63;0.40;;;;;;;22.43;33.26;97869.13;5108431;28;19924;-59
2022/04/01 09:56:54;;;;;;;11.63;0.52;;;;;;;23.08;32.91;97868.81;5114236;28;20128;-60
2022/04/01 09:59:21;;;;;;;3.20;0.43;;;;;;;24.08;31.31;97861.94;5110414;28;20071;-61
2022/04/01 10:01:47;;;;;;;1.58;0.40;;;;;;;23.87;31.11;97865.22;5107930;28;20488;-61
2022/04/01 10:04:13;;;;;;;3.67;0.40;;;;;;;23.58;31.48;97870.59;5083173;28;20047;-61
2022/04/01 10:06:40;;;;;;;2.20;0.50;;;;;;;23.29;31.91;97865.59;5109074;27;20042;-61
2022/04/01 10:09:11;;;;;;;2.70;0.45;;;;;;;23.13;32.51;97878.66;5101579;27;20090;-61
2022/04/01 10:11:41;;;;;;;1.40;0.32;;;;;;;22.99;32.30;97868.56;5104105;27;20043;-61
2022/04/01 10:14:10;;;;;;;7.35;0.85;;;;;;;22.86;32.52;97876.78;5113252;27;20052;-63
2022/04/01 10:16:36;;;;;;;29.02;2.92;;;;;;;22.73;32.59;97875.78;5111926;28;20138;-62
2022/04/01 10:19:08;;;;;;;12.95;1.70;;;;;;;22.65;32.67;97882.69;5109863;28;20453;-62
2022/04/01 10:21:35;;;;;;;7.73;1.57;;;;;;;22.60;32.85;97880.41;5108008;28;20039;-62
2022/04/01 10:24:30;;;;;;;10.20;1.58;;;;;;;22.54;32.59;97882.88;5110537;27;20278;-62
2022/04/01 10:27:04;;;;;;;8.13;1.35;;;;;;;22.52;32.56;97883.28;5104421;28;20052;-62
2022/04/01 10:29:32;;;;;;;5.70;1.45;;;;;;;22.47;32.55;97880.97;5116144;27;20047;-62
2022/04/01 10:32:26;;;;;;;3.63;0.98;;;;;;;22.43;32.11;97888.63;5108690;28;20043;-62
2022/04/01 10:34:54;;;;;;;7.43;1.42;;;;;;;22.39;32.21;97899.03;5113878;27;20051;-62
2022/04/01 10:37:22;;;;;;;5.80;1.00;;;;;;;22.37;32.36;97895.88;5108176;27;20052;-61
2022/04/01 10:39:51;;;;;;;8.77;1.20;;;;;;;22.36;32.31;97894.31;5110171;27;20129;-60
2022/04/01 10:42:17;;;;;;;5.47;1.08;;;;;;;22.37;32.08;97901.47;5112459;27;20118;-60
2022/04/01 10:44:52;;;;;;;9.20;1.15;;;;;;;22.35;31.95;97903.06;5120839;28;20134;-60
2022/04/01 10:47:21;;;;;;;9.35;1.33;;;;;;;22.34;32.14;97902.28;5115990;27;20053;-60
2022/04/01 10:52:31;;;;;;;7.85;1.25;;;;;;;22.36;31.85;97893.50;5115526;28;20058;-62
2022/04/01 10:55:02;;;;;;;8.55;1.52;;;;;;;22.37;31.70;97895.88;5119549;28;20087;-62
2022/04/01 10:57:30;;;;;;;10.48;1.50;;;;;;;22.43;31.62;97902.56;5104307;28;20058;-61
2022/04/01 11:00:15;;;;;;;20.73;2.22;;;;;;;22.44;31.74;97895.78;5111340;28;20163;-62
2022/04/01 11:02:42;;;;;;;19.33;2.92;;;;;;;22.45;31.33;97907.69;5112209;28;20070;-62
2022/04/01 11:05:25;;;;;;;13.13;4.90;;;;;;;22.06;27.72;97897.13;5117305;28;20088;-62
2022/04/01 11:08:14;;;;;;;32.33;19.65;;;;;;;21.56;27.66;97900.56;5114136;28;20042;-63
2022/04/01 11:10:39;;;;;;;41.90;11.68;;;;;;;21.47;30.28;97906.63;5112066;28;20047;-61
2022/04/01 11:13:05;;;;;;;50.00;10.52;;;;;;;21.61;30.41;97908.47;5106528;27;20070;-62
2022/04/01 11:15:31;;;;;;;47.00;10.07;;;;;;;21.71;30.53;97896.38;5106451;28;20078;-63
2022/04/01 11:17:57;;;;;;;36.30;8.73;;;;;;;21.82;30.63;97908.19;5078062;28;20688;-59
2022/04/01 11:20:22;;;;;;;34.90;8.70;;;;;;;21.97;30.82;97906.00;5090758;27;20048;-61
2022/04/01 11:22:54;;;;;;;48.13;9.13;;;;;;;22.61;29.98;97915.41;5105866;28;20046;-61
2022/04/01 11:25:22;;;;;;;41.97;8.32;;;;;;;23.40;29.05;97903.66;5111384;28;20043;-61
2022/04/01 11:27:57;;;;;;;42.80;8.88;;;;;;;24.22;28.21;97902.72;5099937;27;20053;-60
2022/04/01 11:31:06;;;;;;;32.00;7.22;;;;;;;24.05;27.91;97899.09;5105094;28;20046;-59
2022/04/01 11:33:32;;;;;;;30.88;8.10;;;;;;;23.66;28.47;97905.53;5081269;28;20491;-59
2022/04/01 11:35:58;;;;;;;42.55;7.25;;;;;;;23.36;28.94;97906.53;5103344;27;20172;-60
2022/04/01 11:38:26;;;;;;;32.47;7.80;;;;;;;23.14;29.28;97905.34;5106090;28;20040;-60
2022/04/01 11:40:56;;;;;;;32.70;6.18;;;;;;;22.96;29.62;97903.66;5107307;27;20069;-59
2022/04/01 11:43:23;;;;;;;30.35;6.40;;;;;;;22.84;29.80;97907.03;5106719;27;20580;-59
2022/04/01 11:45:54;;;;;;;29.20;7.03;;;;;;;22.73;29.82;97903.66;5109562;28;20499;-59
2022/04/01 11:48:34;;;;;;;32.55;6.03;;;;;;;22.65;30.53;97899.44;5107955;28;20040;-59
2022/04/01 11:51:11;;;;;;;28.75;6.18;;;;;;;22.60;30.51;97906.25;5109144;27;20100;-59